sensor_id;sensor_type;location;lat;lon;timestamp;pressure;altitude;pressure_sealevel;temperature;humidity
9307;BME280;4691;47.612;7.610;2023-02-18T00:01:13;100753.38;;;11.72;100.00
9307;BME280;4691;47.612;7.610;2023-02-18T00:03:39;100739.63;;;11.78;100.00
9307;BME280;4691;47.612;7.610;2023-02-18T00:06:19;100719.41;;;11.90;100.00
9307;BME280;4691;47.612;7.610;2023-02-18T00:08:48;100685.47;;;11.89;100.00
9307;BME280;4691;47.612;7.610;2023-02-18T00:11:15;100670.97;;;11.93;100.00
9307;BME280;4691;47.612;7.610;2023-02-18T00:13:41;100654.34;;;11.86;100.00
9307;BME280;4691;47.612;7.610;2023-02-18T00:16:11;100654.09;;;11.91;100.00
9307;BME280;4691;47.612;7.610;2023-02-18T00:18:37;100622.53;;;11.96;100.00
9307;BME280;4691;47.612;7.610;2023-02-18T00:21:04;100628.25;;;11.90;100.00
9307;BME280;4691;47.612;7.610;2023-02-18T00:23:30;100629.31;;;11.86;100.00
9307;BME280;4691;47.612;7.610;2023-02-18T00:28:29;100638.06;;;11.89;100.00
9307;BME280;4691;47.612;7.610;2023-02-18T00:30:54;100621.44;;;11.83;100.00
9307;BME280;4691;47.612;7.610;2023-02-18T00:33:20;100629.97;;;11.91;100.00
9307;BME280;4691;47.612;7.610;2023-02-18T00:35:45;100624.44;;;11.94;100.00
9307;BME280;4691;47.612;7.610;2023-02-18T00:38:11;100603.34;;;11.88;100.00
9307;BME280;4691;47.612;7.610;2023-02-18T00:40:37;100603.16;;;11.91;100.00
9307;BME280;4691;47.612;7.610;2023-02-18T00:43:03;100594.88;;;11.95;100.00
9307;BME280;4691;47.612;7.610;2023-02-18T00:45:28;100583.19;;;11.96;100.00
9307;BME280;4691;47.612;7.610;2023-02-18T00:47:54;100563.38;;;11.99;100.00
9307;BME280;4691;47.612;7.610;2023-02-18T00:50:20;100555.59;;;11.94;100.00
9307;BME280;4691;47.612;7.610;2023-02-18T00:52:47;100544.00;;;11.94;100.00
9307;BME280;4691;47.612;7.610;2023-02-18T00:55:13;100542.28;;;11.93;100.00
9307;BME280;4691;47.612;7.610;2023-02-18T00:57:38;100536.75;;;11.96;100.00
9307;BME280;4691;47.612;7.610;2023-02-18T01:00:07;100529.66;;;11.95;100.00
9307;BME280;4691;47.612;7.610;2023-02-18T01:02:33;100518.34;;;11.90;100.00
9307;BME280;4691;47.612;7.610;2023-02-18T01:04:59;100529.13;;;11.88;100.00
9307;BME280;4691;47.612;7.610;2023-02-18T01:07:24;100530.69;;;11.92;100.00
9307;BME280;4691;47.612;7.610;2023-02-18T01:09:49;100530.00;;;11.89;100.00
9307;BME280;4691;47.612;7.610;2023-02-18T01:12:15;100537.25;;;11.87;100.00
9307;BME280;4691;47.612;7.610;2023-02-18T01:14:40;100542.13;;;11.78;100.00
9307;BME280;4691;47.612;7.610;2023-02-18T01:17:06;100545.44;;;11.84;100.00
9307;BME280;4691;47.612;7.610;2023-02-18T01:19:31;100530.13;;;11.86;100.00
9307;BME280;4691;47.612;7.610;2023-02-18T01:21:56;100541.28;;;11.78;100.00
9307;BME280;4691;47.612;7.610;2023-02-18T01:24:21;100545.53;;;11.82;100.00
9307;BME280;4691;47.612;7.610;2023-02-18T01:26:47;100533.78;;;11.85;100.00
9307;BME280;4691;47.612;7.610;2023-02-18T01:29:12;100520.44;;;11.83;100.00
9307;BME280;4691;47.612;7.610;2023-02-18T01:31:38;100521.00;;;11.90;100.00
9307;BME280;4691;47.612;7.610;2023-02-18T01:34:03;100515.16;;;11.82;100.00
9307;BME280;4691;47.612;7.610;2023-02-18T01:36:28;100528.50;;;11.83;100.00
9307;BME280;4691;47.612;7.610;2023-02-18T01:38:54;100517.56;;;11.88;100.00
9307;BME280;4691;47.612;7.610;2023-02-18T01:41:19;100504.28;;;11.85;100.00
9307;BME280;4691;47.612;7.610;2023-02-18T01:43:47;100489.88;;;11.87;100.00
9307;BME280;4691;47.612;7.610;2023-02-18T01:46:21;100484.41;;;11.89;100.00
9307;BME280;4691;47.612;7.610;2023-02-18T01:53:54;100478.41;;;11.84;100.00
9307;BME280;4691;47.612;7.610;2023-02-18T01:56:26;100448.53;;;11.91;100.00
9307;BME280;4691;47.612;7.610;2023-02-18T01:58:54;100435.22;;;11.90;100.00
9307;BME280;4691;47.612;7.610;2023-02-18T02:01:21;100429.88;;;11.90;100.00
9307;BME280;4691;47.612;7.610;2023-02-18T02:03:46;100434.94;;;11.94;100.00
9307;BME280;4691;47.612;7.610;2023-02-18T02:06:16;100426.56;;;11.85;100.00
9307;BME280;4691;47.612;7.610;2023-02-18T02:08:42;100421.53;;;11.78;100.00
9307;BME280;4691;47.612;7.610;2023-02-18T02:11:22;100433.63;;;11.86;100.00
9307;BME280;4691;47.612;7.610;2023-02-18T02:16:44;100394.25;;;11.88;100.00
9307;BME280;4691;47.612;7.610;2023-02-18T02:24:57;100413.50;;;11.78;100.00
9307;BME280;4691;47.612;7.610;2023-02-18T02:27:34;100415.84;;;11.85;100.00
9307;BME280;4691;47.612;7.610;2023-02-18T02:30:32;100386.97;;;11.90;100.00
9307;BME280;4691;47.612;7.610;2023-02-18T02:35:56;100354.88;;;11.88;100.00
9307;BME280;4691;47.612;7.610;2023-02-18T02:38:35;100353.06;;;11.89;100.00
9307;BME280;4691;47.612;7.610;2023-02-18T02:46:06;100348.03;;;11.83;100.00
9307;BME280;4691;47.612;7.610;2023-02-18T02:48:47;100350.72;;;11.83;100.00
9307;BME280;4691;47.612;7.610;2023-02-18T02:51:19;100335.56;;;11.82;100.00
9307;BME280;4691;47.612;7.610;2023-02-18T02:53:48;100327.53;;;11.82;100.00
9307;BME280;4691;47.612;7.610;2023-02-18T02:56:21;100315.34;;;11.92;100.00
9307;BME280;4691;47.612;7.610;2023-02-18T02:58:56;100307.06;;;11.81;100.00
9307;BME280;4691;47.612;7.610;2023-02-18T03:15:49;100277.81;;;11.92;100.00
9307;BME280;4691;47.612;7.610;2023-02-18T03:19:38;100165.44;;;11.89;100.00
9307;BME280;4691;47.612;7.610;2023-02-18T03:22:27;100199.66;;;11.84;100.00
9307;BME280;4691;47.612;7.610;2023-02-18T03:24:55;100215.41;;;11.90;100.00
9307;BME280;4691;47.612;7.610;2023-02-18T03:27:24;100245.22;;;11.84;100.00
9307;BME280;4691;47.612;7.610;2023-02-18T03:29:55;100272.03;;;11.84;100.00
9307;BME280;4691;47.612;7.610;2023-02-18T03:32:22;100298.06;;;11.82;100.00
9307;BME280;4691;47.612;7.610;2023-02-18T03:34:58;100296.78;;;11.89;100.00
9307;BME280;4691;47.612;7.610;2023-02-18T03:37:24;100309.75;;;11.81;100.00
9307;BME280;4691;47.612;7.610;2023-02-18T03:39:54;100328.16;;;11.87;100.00
9307;BME280;4691;47.612;7.610;2023-02-18T03:42:25;100339.22;;;11.81;100.00
9307;BME280;4691;47.612;7.610;2023-02-18T03:44:50;100339.91;;;11.84;100.00
9307;BME280;4691;47.612;7.610;2023-02-18T03:47:16;100357.41;;;11.75;100.00
9307;BME280;4691;47.612;7.610;2023-02-18T03:49:41;100377.97;;;11.75;100.00
9307;BME280;4691;47.612;7.610;2023-02-18T03:52:06;100393.19;;;11.74;100.00
9307;BME280;4691;47.612;7.610;2023-02-18T03:54:32;100411.19;;;11.72;100.00
9307;BME280;4691;47.612;7.610;2023-02-18T03:56:57;100421.38;;;11.66;100.00
9307;BME280;4691;47.612;7.610;2023-02-18T03:59:22;100430.47;;;11.79;100.00
9307;BME280;4691;47.612;7.610;2023-02-18T04:01:47;100434.63;;;11.69;100.00
9307;BME280;4691;47.612;7.610;2023-02-18T04:04:13;100444.13;;;11.74;100.00
9307;BME280;4691;47.612;7.610;2023-02-18T04:06:38;100447.31;;;11.65;100.00
9307;BME280;4691;47.612;7.610;2023-02-18T04:09:03;100435.38;;;11.71;100.00
9307;BME280;4691;47.612;7.610;2023-02-18T04:11:36;100435.66;;;11.66;100.00
9307;BME280;4691;47.612;7.610;2023-02-18T04:14:02;100431.06;;;11.68;100.00
9307;BME280;4691;47.612;7.610;2023-02-18T04:16:28;100438.84;;;11.73;100.00
9307;BME280;4691;47.612;7.610;2023-02-18T04:18:53;100436.06;;;11.74;100.00
9307;BME280;4691;47.612;7.610;2023-02-18T04:21:18;100434.00;;;11.80;100.00
9307;BME280;4691;47.612;7.610;2023-02-18T04:23:43;100438.56;;;11.77;100.00
9307;BME280;4691;47.612;7.610;2023-02-18T04:26:09;100446.00;;;11.72;100.00
9307;BME280;4691;47.612;7.610;2023-02-18T04:28:34;100455.09;;;11.70;100.00
9307;BME280;4691;47.612;7.610;2023-02-18T04:30:59;100468.25;;;11.74;100.00
9307;BME280;4691;47.612;7.610;2023-02-18T04:33:24;100454.47;;;11.81;100.00
9307;BME280;4691;47.612;7.610;2023-02-18T04:35:50;100455.53;;;11.78;100.00
9307;BME280;4691;47.612;7.610;2023-02-18T04:38:15;100442.97;;;11.78;100.00
9307;BME280;4691;47.612;7.610;2023-02-18T04:40:40;100438.94;;;11.71;100.00
9307;BME280;4691;47.612;7.610;2023-02-18T04:43:06;100445.94;;;11.74;100.00
9307;BME280;4691;47.612;7.610;2023-02-18T04:45:31;100448.88;;;11.69;100.00
9307;BME280;4691;47.612;7.610;2023-02-18T04:47:56;100451.81;;;11.65;100.00
9307;BME280;4691;47.612;7.610;2023-02-18T04:50:22;100467.22;;;11.61;100.00
9307;BME280;4691;47.612;7.610;2023-02-18T04:52:47;100475.25;;;11.61;100.00
9307;BME280;4691;47.612;7.610;2023-02-18T04:55:13;100487.44;;;11.51;100.00
9307;BME280;4691;47.612;7.610;2023-02-18T04:57:38;100517.38;;;11.42;100.00
9307;BME280;4691;47.612;7.610;2023-02-18T05:00:05;100532.66;;;11.40;100.00
9307;BME280;4691;47.612;7.610;2023-02-18T05:02:31;100554.28;;;11.37;100.00
9307;BME280;4691;47.612;7.610;2023-02-18T05:04:57;100572.94;;;11.38;100.00
9307;BME280;4691;47.612;7.610;2023-02-18T05:07:22;100561.03;;;11.44;100.00
9307;BME280;4691;47.612;7.610;2023-02-18T05:09:47;100535.31;;;11.73;100.00
9307;BME280;4691;47.612;7.610;2023-02-18T05:12:13;100493.41;;;11.72;100.00
9307;BME280;4691;47.612;7.610;2023-02-18T05:14:38;100464.44;;;11.63;100.00
9307;BME280;4691;47.612;7.610;2023-02-18T05:17:03;100446.53;;;11.63;100.00
9307;BME280;4691;47.612;7.610;2023-02-18T05:19:28;100432.44;;;11.60;100.00
9307;BME280;4691;47.612;7.610;2023-02-18T05:21:54;100411.38;;;11.69;100.00
9307;BME280;4691;47.612;7.610;2023-02-18T05:24:19;100392.25;;;11.60;100.00
9307;BME280;4691;47.612;7.610;2023-02-18T05:26:44;100389.13;;;11.67;100.00
9307;BME280;4691;47.612;7.610;2023-02-18T05:29:09;100357.75;;;11.69;100.00
9307;BME280;4691;47.612;7.610;2023-02-18T05:31:35;100359.84;;;11.64;100.00
9307;BME280;4691;47.612;7.610;2023-02-18T05:34:02;100355.09;;;11.69;100.00
9307;BME280;4691;47.612;7.610;2023-02-18T05:36:27;100347.91;;;11.70;100.00
9307;BME280;4691;47.612;7.610;2023-02-18T05:38:53;100322.28;;;11.80;100.00
9307;BME280;4691;47.612;7.610;2023-02-18T05:41:18;100296.53;;;11.77;100.00
9307;BME280;4691;47.612;7.610;2023-02-18T05:43:43;100288.69;;;11.74;100.00
9307;BME280;4691;47.612;7.610;2023-02-18T05:46:27;100286.09;;;11.73;100.00
9307;BME280;4691;47.612;7.610;2023-02-18T05:48:52;100276.13;;;11.75;100.00
9307;BME280;4691;47.612;7.610;2023-02-18T05:51:18;100287.91;;;11.72;100.00
9307;BME280;4691;47.612;7.610;2023-02-18T05:53:43;100291.72;;;11.68;100.00
9307;BME280;4691;47.612;7.610;2023-02-18T05:56:09;100296.22;;;11.68;100.00
9307;BME280;4691;47.612;7.610;2023-02-18T05:58:34;100295.09;;;11.72;100.00
9307;BME280;4691;47.612;7.610;2023-02-18T06:00:59;100282.16;;;11.78;100.00
9307;BME280;4691;47.612;7.610;2023-02-18T06:03:24;100280.97;;;11.68;100.00
9307;BME280;4691;47.612;7.610;2023-02-18T06:05:51;100280.13;;;11.68;100.00
9307;BME280;4691;47.612;7.610;2023-02-18T06:08:16;100297.75;;;11.72;100.00
9307;BME280;4691;47.612;7.610;2023-02-18T06:10:41;100313.78;;;11.58;100.00
9307;BME280;4691;47.612;7.610;2023-02-18T06:13:06;100324.41;;;11.59;100.00
9307;BME280;4691;47.612;7.610;2023-02-18T06:15:32;100337.47;;;11.49;100.00
9307;BME280;4691;47.612;7.610;2023-02-18T06:17:57;100341.09;;;11.64;100.00
9307;BME280;4691;47.612;7.610;2023-02-18T06:20:22;100326.06;;;11.62;100.00
9307;BME280;4691;47.612;7.610;2023-02-18T06:22:48;100322.16;;;11.67;100.00
9307;BME280;4691;47.612;7.610;2023-02-18T06:25:13;100280.25;;;11.81;100.00
9307;BME280;4691;47.612;7.610;2023-02-18T06:27:38;100245.34;;;11.82;100.00
9307;BME280;4691;47.612;7.610;2023-02-18T06:30:04;100213.78;;;11.87;100.00
9307;BME280;4691;47.612;7.610;2023-02-18T06:32:30;100177.56;;;11.80;100.00
9307;BME280;4691;47.612;7.610;2023-02-18T06:34:55;100170.97;;;11.86;100.00
9307;BME280;4691;47.612;7.610;2023-02-18T06:37:20;100146.59;;;11.90;100.00
9307;BME280;4691;47.612;7.610;2023-02-18T06:39:45;100128.25;;;11.83;100.00
9307;BME280;4691;47.612;7.610;2023-02-18T06:42:11;100107.75;;;11.82;100.00
9307;BME280;4691;47.612;7.610;2023-02-18T06:44:36;100090.50;;;11.87;100.00
9307;BME280;4691;47.612;7.610;2023-02-18T06:47:01;100068.94;;;11.89;100.00
9307;BME280;4691;47.612;7.610;2023-02-18T06:49:27;100045.59;;;11.91;100.00
9307;BME280;4691;47.612;7.610;2023-02-18T06:51:52;100006.50;;;12.01;100.00
9307;BME280;4691;47.612;7.610;2023-02-18T06:54:17;99988.59;;;12.02;100.00
9307;BME280;4691;47.612;7.610;2023-02-18T06:56:43;99962.75;;;12.01;100.00
9307;BME280;4691;47.612;7.610;2023-02-18T06:59:08;99945.41;;;12.06;100.00
9307;BME280;4691;47.612;7.610;2023-02-18T07:01:33;99901.34;;;12.10;100.00
9307;BME280;4691;47.612;7.610;2023-02-18T07:03:59;99889.94;;;12.07;100.00
9307;BME280;4691;47.612;7.610;2023-02-18T07:06:24;99903.88;;;11.99;100.00
9307;BME280;4691;47.612;7.610;2023-02-18T07:08:49;99922.38;;;12.16;100.00
9307;BME280;4691;47.612;7.610;2023-02-18T07:11:15;99876.78;;;12.16;100.00
9307;BME280;4691;47.612;7.610;2023-02-18T07:13:40;99865.75;;;12.21;100.00
9307;BME280;4691;47.612;7.610;2023-02-18T07:16:05;99852.44;;;12.19;100.00
9307;BME280;4691;47.612;7.610;2023-02-18T07:18:30;99861.25;;;12.22;100.00
9307;BME280;4691;47.612;7.610;2023-02-18T07:20:56;99843.88;;;12.27;100.00
9307;BME280;4691;47.612;7.610;2023-02-18T07:23:21;99814.28;;;12.29;100.00
9307;BME280;4691;47.612;7.610;2023-02-18T07:25:46;99789.91;;;12.32;100.00
9307;BME280;4691;47.612;7.610;2023-02-18T07:28:12;99777.81;;;12.39;100.00
9307;BME280;4691;47.612;7.610;2023-02-18T07:30:37;99728.66;;;12.51;100.00
9307;BME280;4691;47.612;7.610;2023-02-18T07:33:02;99704.84;;;12.47;100.00
9307;BME280;4691;47.612;7.610;2023-02-18T07:35:28;99700.75;;;12.54;100.00
9307;BME280;4691;47.612;7.610;2023-02-18T07:37:53;99661.88;;;12.59;100.00
9307;BME280;4691;47.612;7.610;2023-02-18T07:40:20;99619.00;;;12.71;100.00
9307;BME280;4691;47.612;7.610;2023-02-18T07:42:45;99601.78;;;12.62;100.00
9307;BME280;4691;47.612;7.610;2023-02-18T07:45:11;99596.28;;;12.63;100.00
9307;BME280;4691;47.612;7.610;2023-02-18T07:47:36;99566.59;;;12.78;100.00
9307;BME280;4691;47.612;7.610;2023-02-18T07:50:02;99544.84;;;12.70;100.00
9307;BME280;4691;47.612;7.610;2023-02-18T07:52:27;99537.75;;;12.69;100.00
9307;BME280;4691;47.612;7.610;2023-02-18T07:54:53;99546.88;;;12.66;100.00
9307;BME280;4691;47.612;7.610;2023-02-18T07:57:18;99563.00;;;12.66;100.00
9307;BME280;4691;47.612;7.610;2023-02-18T07:59:43;99572.88;;;12.66;100.00
9307;BME280;4691;47.612;7.610;2023-02-18T08:02:19;99551.91;;;12.71;100.00
9307;BME280;4691;47.612;7.610;2023-02-18T08:04:45;99538.75;;;12.68;100.00
9307;BME280;4691;47.612;7.610;2023-02-18T08:07:14;99534.72;;;12.73;100.00
9307;BME280;4691;47.612;7.610;2023-02-18T08:09:40;99539.25;;;12.73;100.00
9307;BME280;4691;47.612;7.610;2023-02-18T08:12:05;99544.38;;;12.76;100.00
9307;BME280;4691;47.612;7.610;2023-02-18T08:14:31;99524.41;;;12.80;100.00
9307;BME280;4691;47.612;7.610;2023-02-18T08:16:56;99508.06;;;12.83;100.00
9307;BME280;4691;47.612;7.610;2023-02-18T08:19:21;99488.53;;;12.81;100.00
9307;BME280;4691;47.612;7.610;2023-02-18T08:21:46;99488.28;;;12.84;100.00
9307;BME280;4691;47.612;7.610;2023-02-18T08:24:12;99484.66;;;12.85;100.00
9307;BME280;4691;47.612;7.610;2023-02-18T08:26:37;99448.53;;;12.89;100.00
9307;BME280;4691;47.612;7.610;2023-02-18T08:29:02;99431.22;;;12.93;100.00
9307;BME280;4691;47.612;7.610;2023-02-18T08:31:29;99426.59;;;13.06;100.00
9307;BME280;4691;47.612;7.610;2023-02-18T08:33:56;99419.75;;;13.14;100.00
9307;BME280;4691;47.612;7.610;2023-02-18T08:36:24;99393.16;;;13.11;100.00
9307;BME280;4691;47.612;7.610;2023-02-18T08:38:50;99360.69;;;13.14;100.00
9307;BME280;4691;47.612;7.610;2023-02-18T08:41:16;99351.19;;;13.21;100.00
9307;BME280;4691;47.612;7.610;2023-02-18T08:43:43;99332.75;;;13.27;100.00
9307;BME280;4691;47.612;7.610;2023-02-18T08:46:09;99327.00;;;13.32;100.00
9307;BME280;4691;47.612;7.610;2023-02-18T08:48:34;99320.78;;;13.32;100.00
9307;BME280;4691;47.612;7.610;2023-02-18T08:51:09;99303.31;;;13.37;100.00
9307;BME280;4691;47.612;7.610;2023-02-18T08:53:35;99299.41;;;13.41;100.00
9307;BME280;4691;47.612;7.610;2023-02-18T08:56:00;99287.88;;;13.50;100.00
9307;BME280;4691;47.612;7.610;2023-02-18T08:58:25;99290.72;;;13.49;100.00
9307;BME280;4691;47.612;7.610;2023-02-18T09:00:51;99283.16;;;13.43;100.00
9307;BME280;4691;47.612;7.610;2023-02-18T09:03:16;99277.41;;;13.47;100.00
9307;BME280;4691;47.612;7.610;2023-02-18T09:05:41;99275.72;;;13.46;100.00
9307;BME280;4691;47.612;7.610;2023-02-18T09:08:06;99278.63;;;13.43;100.00
9307;BME280;4691;47.612;7.610;2023-02-18T09:10:32;99291.22;;;13.43;100.00
9307;BME280;4691;47.612;7.610;2023-02-18T09:12:57;99289.84;;;13.48;100.00
9307;BME280;4691;47.612;7.610;2023-02-18T09:15:22;99302.81;;;13.43;100.00
9307;BME280;4691;47.612;7.610;2023-02-18T09:17:48;99320.91;;;13.41;100.00
9307;BME280;4691;47.612;7.610;2023-02-18T09:20:13;99316.22;;;13.55;100.00
9307;BME280;4691;47.612;7.610;2023-02-18T09:22:39;99328.94;;;13.53;100.00
9307;BME280;4691;47.612;7.610;2023-02-18T09:25:05;99339.56;;;13.43;100.00
9307;BME280;4691;47.612;7.610;2023-02-18T09:27:31;99342.88;;;13.35;100.00
9307;BME280;4691;47.612;7.610;2023-02-18T09:29:56;99359.63;;;13.39;100.00
9307;BME280;4691;47.612;7.610;2023-02-18T09:32:22;99355.06;;;13.50;100.00
9307;BME280;4691;47.612;7.610;2023-02-18T09:34:47;99356.03;;;13.49;100.00
9307;BME280;4691;47.612;7.610;2023-02-18T09:37:12;99358.44;;;13.64;100.00
9307;BME280;4691;47.612;7.610;2023-02-18T09:39:39;99348.22;;;13.58;100.00
9307;BME280;4691;47.612;7.610;2023-02-18T09:42:07;99345.75;;;13.66;100.00
9307;BME280;4691;47.612;7.610;2023-02-18T09:44:48;99327.44;;;13.60;100.00
9307;BME280;4691;47.612;7.610;2023-02-18T09:47:24;99328.75;;;13.65;100.00
9307;BME280;4691;47.612;7.610;2023-02-18T09:49:57;99338.41;;;13.68;100.00
9307;BME280;4691;47.612;7.610;2023-02-18T09:52:35;99335.97;;;13.65;100.00
9307;BME280;4691;47.612;7.610;2023-02-18T09:55:16;99327.72;;;13.57;100.00
9307;BME280;4691;47.612;7.610;2023-02-18T09:57:44;99314.31;;;13.78;100.00
9307;BME280;4691;47.612;7.610;2023-02-18T10:00:19;99328.59;;;13.78;100.00
9307;BME280;4691;47.612;7.610;2023-02-18T10:02:56;99321.44;;;13.67;100.00
9307;BME280;4691;47.612;7.610;2023-02-18T10:05:23;99317.16;;;13.65;100.00
9307;BME280;4691;47.612;7.610;2023-02-18T10:07:53;99323.75;;;13.72;100.00
9307;BME280;4691;47.612;7.610;2023-02-18T10:10:34;99314.22;;;13.68;100.00
9307;BME280;4691;47.612;7.610;2023-02-18T10:13:02;99311.28;;;13.71;100.00
9307;BME280;4691;47.612;7.610;2023-02-18T10:15:29;99315.22;;;13.67;100.00
9307;BME280;4691;47.612;7.610;2023-02-18T10:17:56;99317.69;;;13.47;100.00
9307;BME280;4691;47.612;7.610;2023-02-18T10:20:26;99325.09;;;13.66;100.00
9307;BME280;4691;47.612;7.610;2023-02-18T10:22:54;99318.75;;;13.67;100.00
9307;BME280;4691;47.612;7.610;2023-02-18T10:25:22;99328.88;;;13.75;100.00
9307;BME280;4691;47.612;7.610;2023-02-18T10:27:51;99317.44;;;13.62;100.00
9307;BME280;4691;47.612;7.610;2023-02-18T10:32:45;99323.56;;;13.53;100.00
9307;BME280;4691;47.612;7.610;2023-02-18T10:35:30;99317.81;;;13.57;100.00
9307;BME280;4691;47.612;7.610;2023-02-18T10:40:41;99308.63;;;13.60;100.00
9307;BME280;4691;47.612;7.610;2023-02-18T10:46:21;99303.47;;;13.68;100.00
9307;BME280;4691;47.612;7.610;2023-02-18T10:51:44;99322.53;;;13.65;100.00
9307;BME280;4691;47.612;7.610;2023-02-18T10:54:14;99293.72;;;13.67;100.00
9307;BME280;4691;47.612;7.610;2023-02-18T10:56:44;99295.25;;;13.81;100.00
9307;BME280;4691;47.612;7.610;2023-02-18T11:01:38;99277.47;;;13.89;100.00
9307;BME280;4691;47.612;7.610;2023-02-18T11:04:13;99272.84;;;14.12;100.00
9307;BME280;4691;47.612;7.610;2023-02-18T11:06:41;99270.88;;;14.14;100.00
9307;BME280;4691;47.612;7.610;2023-02-18T11:09:29;99263.97;;;14.22;100.00
9307;BME280;4691;47.612;7.610;2023-02-18T11:12:12;99270.00;;;14.35;100.00
9307;BME280;4691;47.612;7.610;2023-02-18T11:14:46;99264.91;;;14.11;100.00
9307;BME280;4691;47.612;7.610;2023-02-18T11:17:27;99253.84;;;14.56;100.00
9307;BME280;4691;47.612;7.610;2023-02-18T11:19:58;99241.97;;;14.58;100.00
9307;BME280;4691;47.612;7.610;2023-02-18T11:22:34;99248.63;;;14.95;100.00
9307;BME280;4691;47.612;7.610;2023-02-18T11:25:21;99243.00;;;14.98;100.00
9307;BME280;4691;47.612;7.610;2023-02-18T11:27:54;99248.22;;;15.79;100.00
9307;BME280;4691;47.612;7.610;2023-02-18T11:30:32;99240.72;;;15.03;100.00
9307;BME280;4691;47.612;7.610;2023-02-18T11:33:02;99248.94;;;14.61;100.00
9307;BME280;4691;47.612;7.610;2023-02-18T11:35:32;99246.56;;;14.47;100.00
9307;BME280;4691;47.612;7.610;2023-02-18T11:37:59;99255.38;;;14.79;100.00
9307;BME280;4691;47.612;7.610;2023-02-18T11:40:34;99255.66;;;14.76;100.00
9307;BME280;4691;47.612;7.610;2023-02-18T11:43:11;99232.41;;;14.75;100.00
9307;BME280;4691;47.612;7.610;2023-02-18T11:45:37;99229.09;;;14.93;100.00
9307;BME280;4691;47.612;7.610;2023-02-18T11:48:17;99238.31;;;14.59;100.00
9307;BME280;4691;47.612;7.610;2023-02-18T11:50:50;99238.25;;;14.80;100.00
9307;BME280;4691;47.612;7.610;2023-02-18T11:53:29;99229.97;;;15.03;100.00
9307;BME280;4691;47.612;7.610;2023-02-18T11:55:57;99230.00;;;15.22;100.00
9307;BME280;4691;47.612;7.610;2023-02-18T11:58:24;99225.56;;;15.02;100.00
9307;BME280;4691;47.612;7.610;2023-02-18T12:00:50;99230.38;;;14.58;100.00
9307;BME280;4691;47.612;7.610;2023-02-18T12:06:04;99245.13;;;14.43;100.00
9307;BME280;4691;47.612;7.610;2023-02-18T12:08:47;99246.72;;;14.24;100.00
9307;BME280;4691;47.612;7.610;2023-02-18T12:11:22;99261.47;;;14.30;100.00
9307;BME280;4691;47.612;7.610;2023-02-18T12:13:53;99256.25;;;14.28;100.00
9307;BME280;4691;47.612;7.610;2023-02-18T12:19:02;99241.53;;;14.32;100.00
9307;BME280;4691;47.612;7.610;2023-02-18T12:22:00;99238.22;;;14.19;100.00
9307;BME280;4691;47.612;7.610;2023-02-18T12:29:39;99238.66;;;14.24;100.00
9307;BME280;4691;47.612;7.610;2023-02-18T13:03:49;99190.28;;;14.55;100.00
9307;BME280;4691;47.612;7.610;2023-02-18T13:09:06;99180.53;;;14.64;100.00
9307;BME280;4691;47.612;7.610;2023-02-18T13:14:31;99168.47;;;14.58;100.00
9307;BME280;4691;47.612;7.610;2023-02-18T13:16:59;99166.34;;;14.62;100.00
9307;BME280;4691;47.612;7.610;2023-02-18T13:19:36;99169.47;;;14.67;100.00
9307;BME280;4691;47.612;7.610;2023-02-18T13:22:08;99166.97;;;14.75;100.00
9307;BME280;4691;47.612;7.610;2023-02-18T13:24:42;99169.91;;;14.62;100.00
9307;BME280;4691;47.612;7.610;2023-02-18T13:27:32;99158.31;;;14.71;100.00
9307;BME280;4691;47.612;7.610;2023-02-18T13:35:56;99139.34;;;14.92;100.00
9307;BME280;4691;47.612;7.610;2023-02-18T13:38:39;99131.81;;;14.76;100.00
9307;BME280;4691;47.612;7.610;2023-02-18T13:41:14;99136.38;;;14.86;100.00
9307;BME280;4691;47.612;7.610;2023-02-18T13:43:39;99133.28;;;14.90;100.00
9307;BME280;4691;47.612;7.610;2023-02-18T13:46:10;99128.44;;;14.84;100.00
9307;BME280;4691;47.612;7.610;2023-02-18T13:51:11;99123.66;;;15.07;100.00
9307;BME280;4691;47.612;7.610;2023-02-18T13:53:39;99125.03;;;14.92;100.00
9307;BME280;4691;47.612;7.610;2023-02-18T13:56:19;99131.28;;;15.02;100.00
9307;BME280;4691;47.612;7.610;2023-02-18T13:58:49;99124.47;;;14.78;100.00
9307;BME280;4691;47.612;7.610;2023-02-18T14:01:22;99128.41;;;14.65;100.00
9307;BME280;4691;47.612;7.610;2023-02-18T14:03:56;99120.19;;;14.66;100.00
9307;BME280;4691;47.612;7.610;2023-02-18T14:06:33;99109.16;;;14.79;100.00
9307;BME280;4691;47.612;7.610;2023-02-18T14:11:45;99119.91;;;14.69;100.00
9307;BME280;4691;47.612;7.610;2023-02-18T14:19:52;99110.56;;;14.73;100.00
9307;BME280;4691;47.612;7.610;2023-02-18T14:22:27;99106.63;;;14.77;100.00
9307;BME280;4691;47.612;7.610;2023-02-18T14:25:02;99095.72;;;14.89;100.00
9307;BME280;4691;47.612;7.610;2023-02-18T14:27:28;99098.13;;;14.92;100.00
9307;BME280;4691;47.612;7.610;2023-02-18T14:29:53;99089.22;;;15.01;100.00
9307;BME280;4691;47.612;7.610;2023-02-18T14:32:19;99105.19;;;15.51;100.00
9307;BME280;4691;47.612;7.610;2023-02-18T14:40:44;99113.06;;;16.01;100.00
9307;BME280;4691;47.612;7.610;2023-02-18T14:51:45;99096.31;;;15.21;100.00
9307;BME280;4691;47.612;7.610;2023-02-18T14:54:15;99117.28;;;16.14;100.00
9307;BME280;4691;47.612;7.610;2023-02-18T14:56:52;99105.75;;;15.64;100.00
9307;BME280;4691;47.612;7.610;2023-02-18T14:59:19;99096.59;;;15.18;100.00
9307;BME280;4691;47.612;7.610;2023-02-18T15:01:46;99086.66;;;15.19;100.00
9307;BME280;4691;47.612;7.610;2023-02-18T15:04:13;99089.34;;;15.09;100.00
9307;BME280;4691;47.612;7.610;2023-02-18T15:06:39;99100.94;;;15.78;100.00
9307;BME280;4691;47.612;7.610;2023-02-18T15:09:17;99154.75;;;17.27;100.00
9307;BME280;4691;47.612;7.610;2023-02-18T15:11:46;99236.44;;;16.93;100.00
9307;BME280;4691;47.612;7.610;2023-02-18T15:14:19;99205.63;;;15.82;100.00
9307;BME280;4691;47.612;7.610;2023-02-18T15:16:47;99228.22;;;17.13;100.00
9307;BME280;4691;47.612;7.610;2023-02-18T15:19:15;99218.13;;;15.93;100.00
9307;BME280;4691;47.612;7.610;2023-02-18T15:21:44;99196.53;;;15.35;100.00
9307;BME280;4691;47.612;7.610;2023-02-18T15:24:30;99189.94;;;16.25;100.00